sensor_id;sensor_type;location;lat;lon;timestamp;P1;durP1;ratioP1;P2;durP2;ratioP2
59872;SDS011;50750;51.636;4.948;2023-01-28T00:00:53;2.80;;;2.00;;
59872;SDS011;50750;51.636;4.948;2023-01-28T00:03:24;2.70;;;1.80;;
59872;SDS011;50750;51.636;4.948;2023-01-28T00:05:50;3.20;;;2.00;;
59872;SDS011;50750;51.636;4.948;2023-01-28T00:08:17;3.10;;;2.00;;
59872;SDS011;50750;51.636;4.948;2023-01-28T00:10:43;3.50;;;2.20;;
59872;SDS011;50750;51.636;4.948;2023-01-28T00:13:10;2.90;;;2.00;;
59872;SDS011;50750;51.636;4.948;2023-01-28T00:15:39;3.30;;;2.30;;
59872;SDS011;50750;51.636;4.948;2023-01-28T00:18:05;3.00;;;2.00;;
59872;SDS011;50750;51.636;4.948;2023-01-28T00:20:31;2.60;;;1.90;;
59872;SDS011;50750;51.636;4.948;2023-01-28T00:22:57;2.40;;;1.70;;
59872;SDS011;50750;51.636;4.948;2023-01-28T00:25:23;2.70;;;1.80;;
59872;SDS011;50750;51.636;4.948;2023-01-28T00:27:49;2.80;;;1.80;;
59872;SDS011;50750;51.636;4.948;2023-01-28T00:30:16;2.60;;;1.80;;
59872;SDS011;50750;51.636;4.948;2023-01-28T00:32:43;2.90;;;1.90;;
59872;SDS011;50750;51.636;4.948;2023-01-28T00:35:09;2.50;;;1.80;;
59872;SDS011;50750;51.636;4.948;2023-01-28T00:37:36;2.60;;;1.80;;
59872;SDS011;50750;51.636;4.948;2023-01-28T00:40:02;2.50;;;1.90;;
59872;SDS011;50750;51.636;4.948;2023-01-28T00:42:29;2.70;;;1.80;;
59872;SDS011;50750;51.636;4.948;2023-01-28T00:44:55;2.60;;;1.90;;
59872;SDS011;50750;51.636;4.948;2023-01-28T00:47:20;4.00;;;2.00;;
59872;SDS011;50750;51.636;4.948;2023-01-28T00:49:46;2.70;;;1.80;;
59872;SDS011;50750;51.636;4.948;2023-01-28T00:52:12;2.80;;;2.10;;
59872;SDS011;50750;51.636;4.948;2023-01-28T00:54:38;2.90;;;1.90;;
59872;SDS011;50750;51.636;4.948;2023-01-28T00:57:04;2.70;;;1.80;;
59872;SDS011;50750;51.636;4.948;2023-01-28T00:59:31;2.70;;;2.00;;
59872;SDS011;50750;51.636;4.948;2023-01-28T01:01:58;2.60;;;2.00;;
59872;SDS011;50750;51.636;4.948;2023-01-28T01:04:36;2.20;;;1.60;;
59872;SDS011;50750;51.636;4.948;2023-01-28T01:07:03;3.10;;;2.00;;
59872;SDS011;50750;51.636;4.948;2023-01-28T01:09:29;2.80;;;2.10;;
59872;SDS011;50750;51.636;4.948;2023-01-28T01:11:55;3.10;;;2.30;;
59872;SDS011;50750;51.636;4.948;2023-01-28T01:14:21;2.80;;;1.90;;
59872;SDS011;50750;51.636;4.948;2023-01-28T01:16:48;2.70;;;2.20;;
59872;SDS011;50750;51.636;4.948;2023-01-28T01:19:14;2.60;;;1.90;;
59872;SDS011;50750;51.636;4.948;2023-01-28T01:21:40;2.70;;;1.90;;
59872;SDS011;50750;51.636;4.948;2023-01-28T01:24:06;2.70;;;2.00;;
59872;SDS011;50750;51.636;4.948;2023-01-28T01:26:32;3.10;;;2.00;;
59872;SDS011;50750;51.636;4.948;2023-01-28T01:28:58;2.90;;;2.10;;
59872;SDS011;50750;51.636;4.948;2023-01-28T01:31:24;2.70;;;2.10;;
59872;SDS011;50750;51.636;4.948;2023-01-28T01:33:50;3.10;;;2.30;;
59872;SDS011;50750;51.636;4.948;2023-01-28T01:36:17;3.00;;;2.30;;
59872;SDS011;50750;51.636;4.948;2023-01-28T01:38:46;2.90;;;2.20;;
59872;SDS011;50750;51.636;4.948;2023-01-28T01:41:21;2.70;;;2.00;;
59872;SDS011;50750;51.636;4.948;2023-01-28T01:43:51;3.10;;;2.30;;
59872;SDS011;50750;51.636;4.948;2023-01-28T01:48:54;3.60;;;2.40;;
59872;SDS011;50750;51.636;4.948;2023-01-28T01:51:27;3.40;;;2.20;;
59872;SDS011;50750;51.636;4.948;2023-01-28T01:53:57;2.70;;;2.00;;
59872;SDS011;50750;51.636;4.948;2023-01-28T01:56:26;3.00;;;2.30;;
59872;SDS011;50750;51.636;4.948;2023-01-28T01:58:57;3.20;;;2.20;;
59872;SDS011;50750;51.636;4.948;2023-01-28T02:01:25;3.00;;;2.10;;
59872;SDS011;50750;51.636;4.948;2023-01-28T02:06:49;3.90;;;2.30;;
59872;SDS011;50750;51.636;4.948;2023-01-28T02:11:52;2.80;;;2.30;;
59872;SDS011;50750;51.636;4.948;2023-01-28T02:14:22;2.90;;;2.10;;
59872;SDS011;50750;51.636;4.948;2023-01-28T02:16:51;2.70;;;1.80;;
59872;SDS011;50750;51.636;4.948;2023-01-28T02:19:18;2.70;;;1.70;;
59872;SDS011;50750;51.636;4.948;2023-01-28T02:25:32;3.00;;;1.90;;
59872;SDS011;50750;51.636;4.948;2023-01-28T02:27:36;2.80;;;1.70;;
59872;SDS011;50750;51.636;4.948;2023-01-28T02:30:31;2.60;;;1.80;;
59872;SDS011;50750;51.636;4.948;2023-01-28T02:33:03;3.90;;;2.10;;
59872;SDS011;50750;51.636;4.948;2023-01-28T02:35:35;3.00;;;2.00;;
59872;SDS011;50750;51.636;4.948;2023-01-28T02:38:08;2.80;;;2.20;;
59872;SDS011;50750;51.636;4.948;2023-01-28T02:40:40;2.70;;;1.90;;
59872;SDS011;50750;51.636;4.948;2023-01-28T02:46:53;2.60;;;1.80;;
59872;SDS011;50750;51.636;4.948;2023-01-28T02:49:15;2.70;;;1.90;;
59872;SDS011;50750;51.636;4.948;2023-01-28T02:51:58;2.70;;;2.00;;
59872;SDS011;50750;51.636;4.948;2023-01-28T02:55:08;2.80;;;2.10;;
59872;SDS011;50750;51.636;4.948;2023-01-28T02:57:49;2.80;;;1.90;;
59872;SDS011;50750;51.636;4.948;2023-01-28T03:00:29;3.00;;;2.00;;
59872;SDS011;50750;51.636;4.948;2023-01-28T03:05:51;3.00;;;2.10;;
59872;SDS011;50750;51.636;4.948;2023-01-28T03:08:40;2.70;;;2.10;;
59872;SDS011;50750;51.636;4.948;2023-01-28T03:11:30;3.50;;;2.30;;
59872;SDS011;50750;51.636;4.948;2023-01-28T03:17:07;2.40;;;1.70;;
59872;SDS011;50750;51.636;4.948;2023-01-28T03:19:58;2.90;;;2.10;;
59872;SDS011;50750;51.636;4.948;2023-01-28T03:22:43;3.00;;;2.20;;
59872;SDS011;50750;51.636;4.948;2023-01-28T03:25:32;3.10;;;2.40;;
59872;SDS011;50750;51.636;4.948;2023-01-28T03:28:18;3.90;;;2.20;;
59872;SDS011;50750;51.636;4.948;2023-01-28T03:33:53;3.20;;;2.20;;
59872;SDS011;50750;51.636;4.948;2023-01-28T03:36:40;3.10;;;2.20;;
59872;SDS011;50750;51.636;4.948;2023-01-28T03:39:14;3.40;;;2.40;;
59872;SDS011;50750;51.636;4.948;2023-01-28T03:41:41;3.30;;;2.30;;
59872;SDS011;50750;51.636;4.948;2023-01-28T03:44:08;3.30;;;2.30;;
59872;SDS011;50750;51.636;4.948;2023-01-28T03:46:52;3.60;;;2.60;;
59872;SDS011;50750;51.636;4.948;2023-01-28T03:49:19;3.70;;;2.80;;
59872;SDS011;50750;51.636;4.948;2023-01-28T03:51:45;3.20;;;2.30;;
59872;SDS011;50750;51.636;4.948;2023-01-28T03:54:11;3.30;;;2.60;;
59872;SDS011;50750;51.636;4.948;2023-01-28T03:56:38;3.70;;;2.60;;
59872;SDS011;50750;51.636;4.948;2023-01-28T03:59:05;3.50;;;2.40;;
59872;SDS011;50750;51.636;4.948;2023-01-28T04:01:32;3.30;;;2.30;;
59872;SDS011;50750;51.636;4.948;2023-01-28T04:03:58;3.60;;;2.60;;
59872;SDS011;50750;51.636;4.948;2023-01-28T04:06:24;3.80;;;2.80;;
59872;SDS011;50750;51.636;4.948;2023-01-28T04:08:50;3.50;;;2.60;;
59872;SDS011;50750;51.636;4.948;2023-01-28T04:11:24;3.40;;;2.40;;
59872;SDS011;50750;51.636;4.948;2023-01-28T04:13:51;3.50;;;2.60;;
59872;SDS011;50750;51.636;4.948;2023-01-28T04:16:18;3.20;;;2.40;;
59872;SDS011;50750;51.636;4.948;2023-01-28T04:18:44;3.10;;;2.00;;
59872;SDS011;50750;51.636;4.948;2023-01-28T04:21:11;3.20;;;2.30;;
59872;SDS011;50750;51.636;4.948;2023-01-28T04:23:37;3.30;;;2.30;;
59872;SDS011;50750;51.636;4.948;2023-01-28T04:26:03;2.50;;;1.90;;
59872;SDS011;50750;51.636;4.948;2023-01-28T04:28:29;3.50;;;2.50;;
59872;SDS011;50750;51.636;4.948;2023-01-28T04:30:57;3.20;;;2.40;;
59872;SDS011;50750;51.636;4.948;2023-01-28T04:33:23;3.40;;;2.30;;
59872;SDS011;50750;51.636;4.948;2023-01-28T04:35:50;3.20;;;2.30;;
59872;SDS011;50750;51.636;4.948;2023-01-28T04:38:16;3.10;;;2.40;;
59872;SDS011;50750;51.636;4.948;2023-01-28T04:40:42;3.40;;;2.50;;
59872;SDS011;50750;51.636;4.948;2023-01-28T04:43:08;3.70;;;2.60;;
59872;SDS011;50750;51.636;4.948;2023-01-28T04:45:34;3.50;;;2.40;;
59872;SDS011;50750;51.636;4.948;2023-01-28T04:47:59;3.10;;;2.20;;
59872;SDS011;50750;51.636;4.948;2023-01-28T04:50:25;3.40;;;2.40;;
59872;SDS011;50750;51.636;4.948;2023-01-28T04:52:51;3.80;;;2.60;;
59872;SDS011;50750;51.636;4.948;2023-01-28T04:55:18;3.80;;;2.70;;
59872;SDS011;50750;51.636;4.948;2023-01-28T04:57:45;4.00;;;2.60;;
59872;SDS011;50750;51.636;4.948;2023-01-28T05:00:12;3.20;;;2.40;;
59872;SDS011;50750;51.636;4.948;2023-01-28T05:02:39;4.10;;;2.60;;
59872;SDS011;50750;51.636;4.948;2023-01-28T05:05:04;3.40;;;2.40;;
59872;SDS011;50750;51.636;4.948;2023-01-28T05:07:33;3.30;;;2.50;;
59872;SDS011;50750;51.636;4.948;2023-01-28T05:10:00;3.40;;;2.70;;
59872;SDS011;50750;51.636;4.948;2023-01-28T05:12:26;3.10;;;2.20;;
59872;SDS011;50750;51.636;4.948;2023-01-28T05:14:52;3.60;;;2.70;;
59872;SDS011;50750;51.636;4.948;2023-01-28T05:17:17;3.20;;;2.50;;
59872;SDS011;50750;51.636;4.948;2023-01-28T05:19:43;3.60;;;2.60;;
59872;SDS011;50750;51.636;4.948;2023-01-28T05:22:11;3.80;;;2.50;;
59872;SDS011;50750;51.636;4.948;2023-01-28T05:24:37;3.80;;;2.60;;
59872;SDS011;50750;51.636;4.948;2023-01-28T05:27:03;3.60;;;2.70;;
59872;SDS011;50750;51.636;4.948;2023-01-28T05:29:29;3.80;;;2.80;;
59872;SDS011;50750;51.636;4.948;2023-01-28T05:31:55;4.30;;;2.80;;
59872;SDS011;50750;51.636;4.948;2023-01-28T05:34:21;3.70;;;2.60;;
59872;SDS011;50750;51.636;4.948;2023-01-28T05:36:47;3.80;;;2.80;;
59872;SDS011;50750;51.636;4.948;2023-01-28T05:39:12;3.70;;;2.50;;
59872;SDS011;50750;51.636;4.948;2023-01-28T05:41:38;3.30;;;2.60;;
59872;SDS011;50750;51.636;4.948;2023-01-28T05:44:04;3.20;;;2.40;;
59872;SDS011;50750;51.636;4.948;2023-01-28T05:46:30;4.00;;;2.70;;
59872;SDS011;50750;51.636;4.948;2023-01-28T05:48:56;3.70;;;2.60;;
59872;SDS011;50750;51.636;4.948;2023-01-28T05:51:22;4.30;;;2.80;;
59872;SDS011;50750;51.636;4.948;2023-01-28T05:53:48;3.70;;;2.80;;
59872;SDS011;50750;51.636;4.948;2023-01-28T05:56:13;4.50;;;3.10;;
59872;SDS011;50750;51.636;4.948;2023-01-28T05:58:40;3.80;;;2.70;;
59872;SDS011;50750;51.636;4.948;2023-01-28T06:01:05;3.70;;;2.70;;
59872;SDS011;50750;51.636;4.948;2023-01-28T06:03:31;3.80;;;2.90;;
59872;SDS011;50750;51.636;4.948;2023-01-28T06:05:57;3.80;;;3.00;;
59872;SDS011;50750;51.636;4.948;2023-01-28T06:08:23;3.70;;;2.90;;
59872;SDS011;50750;51.636;4.948;2023-01-28T06:10:49;3.30;;;2.50;;
59872;SDS011;50750;51.636;4.948;2023-01-28T06:13:15;3.90;;;2.70;;
59872;SDS011;50750;51.636;4.948;2023-01-28T06:15:41;3.80;;;3.10;;
59872;SDS011;50750;51.636;4.948;2023-01-28T06:18:07;3.70;;;2.70;;
59872;SDS011;50750;51.636;4.948;2023-01-28T06:20:33;3.80;;;3.00;;
59872;SDS011;50750;51.636;4.948;2023-01-28T06:22:58;3.80;;;2.70;;
59872;SDS011;50750;51.636;4.948;2023-01-28T06:25:24;3.90;;;2.60;;
59872;SDS011;50750;51.636;4.948;2023-01-28T06:27:50;3.50;;;2.60;;
59872;SDS011;50750;51.636;4.948;2023-01-28T06:30:16;3.70;;;2.80;;
59872;SDS011;50750;51.636;4.948;2023-01-28T06:32:42;4.20;;;3.00;;
59872;SDS011;50750;51.636;4.948;2023-01-28T06:35:09;3.80;;;2.90;;
59872;SDS011;50750;51.636;4.948;2023-01-28T06:37:35;4.00;;;2.60;;
59872;SDS011;50750;51.636;4.948;2023-01-28T06:40:01;4.40;;;2.70;;
59872;SDS011;50750;51.636;4.948;2023-01-28T06:42:28;3.40;;;2.80;;
59872;SDS011;50750;51.636;4.948;2023-01-28T06:44:53;4.40;;;3.00;;
59872;SDS011;50750;51.636;4.948;2023-01-28T06:47:19;3.90;;;3.00;;
59872;SDS011;50750;51.636;4.948;2023-01-28T06:49:45;3.60;;;2.80;;
59872;SDS011;50750;51.636;4.948;2023-01-28T06:52:11;4.60;;;3.30;;
59872;SDS011;50750;51.636;4.948;2023-01-28T06:54:37;3.90;;;3.10;;
59872;SDS011;50750;51.636;4.948;2023-01-28T06:57:03;3.90;;;2.80;;
59872;SDS011;50750;51.636;4.948;2023-01-28T06:59:29;4.90;;;3.30;;
59872;SDS011;50750;51.636;4.948;2023-01-28T07:01:54;3.80;;;3.10;;
59872;SDS011;50750;51.636;4.948;2023-01-28T07:04:20;3.80;;;3.00;;
59872;SDS011;50750;51.636;4.948;2023-01-28T07:06:46;3.60;;;2.80;;
59872;SDS011;50750;51.636;4.948;2023-01-28T07:09:12;3.50;;;2.50;;
59872;SDS011;50750;51.636;4.948;2023-01-28T07:11:38;3.10;;;2.20;;
59872;SDS011;50750;51.636;4.948;2023-01-28T07:14:03;4.50;;;3.00;;
59872;SDS011;50750;51.636;4.948;2023-01-28T07:16:29;3.20;;;2.40;;
59872;SDS011;50750;51.636;4.948;2023-01-28T07:18:55;3.60;;;2.70;;
59872;SDS011;50750;51.636;4.948;2023-01-28T07:21:21;3.30;;;2.30;;
59872;SDS011;50750;51.636;4.948;2023-01-28T07:23:47;3.70;;;2.60;;
59872;SDS011;50750;51.636;4.948;2023-01-28T07:26:13;3.80;;;2.90;;
59872;SDS011;50750;51.636;4.948;2023-01-28T07:28:40;3.80;;;2.70;;
59872;SDS011;50750;51.636;4.948;2023-01-28T07:31:05;3.70;;;2.50;;
59872;SDS011;50750;51.636;4.948;2023-01-28T07:33:31;3.70;;;2.30;;
59872;SDS011;50750;51.636;4.948;2023-01-28T07:35:57;4.80;;;3.80;;
59872;SDS011;50750;51.636;4.948;2023-01-28T07:38:23;7.60;;;4.80;;
59872;SDS011;50750;51.636;4.948;2023-01-28T07:40:49;6.20;;;4.80;;
59872;SDS011;50750;51.636;4.948;2023-01-28T07:43:15;6.90;;;4.40;;
59872;SDS011;50750;51.636;4.948;2023-01-28T07:45:41;7.60;;;4.70;;
59872;SDS011;50750;51.636;4.948;2023-01-28T07:48:08;6.10;;;4.70;;
59872;SDS011;50750;51.636;4.948;2023-01-28T07:50:36;6.00;;;4.70;;
59872;SDS011;50750;51.636;4.948;2023-01-28T07:53:06;6.30;;;4.40;;
59872;SDS011;50750;51.636;4.948;2023-01-28T07:55:35;5.30;;;3.90;;
59872;SDS011;50750;51.636;4.948;2023-01-28T07:58:03;6.50;;;4.10;;
59872;SDS011;50750;51.636;4.948;2023-01-28T08:00:31;5.70;;;4.30;;
59872;SDS011;50750;51.636;4.948;2023-01-28T08:02:58;5.80;;;4.40;;
59872;SDS011;50750;51.636;4.948;2023-01-28T08:05:27;6.00;;;4.40;;
59872;SDS011;50750;51.636;4.948;2023-01-28T08:10:33;6.60;;;3.70;;
59872;SDS011;50750;51.636;4.948;2023-01-28T08:12:59;5.60;;;4.30;;
59872;SDS011;50750;51.636;4.948;2023-01-28T08:15:25;6.40;;;4.70;;
59872;SDS011;50750;51.636;4.948;2023-01-28T08:17:58;5.80;;;4.20;;
59872;SDS011;50750;51.636;4.948;2023-01-28T08:20:25;6.90;;;4.40;;
59872;SDS011;50750;51.636;4.948;2023-01-28T08:22:53;6.40;;;4.80;;
59872;SDS011;50750;51.636;4.948;2023-01-28T08:25:51;8.10;;;5.70;;
59872;SDS011;50750;51.636;4.948;2023-01-28T08:28:18;7.30;;;6.00;;
59872;SDS011;50750;51.636;4.948;2023-01-28T08:30:45;7.80;;;6.20;;
59872;SDS011;50750;51.636;4.948;2023-01-28T08:33:12;7.90;;;6.20;;
59872;SDS011;50750;51.636;4.948;2023-01-28T08:35:40;7.30;;;5.80;;
59872;SDS011;50750;51.636;4.948;2023-01-28T08:38:06;7.50;;;5.80;;
59872;SDS011;50750;51.636;4.948;2023-01-28T08:40:33;8.40;;;6.20;;
59872;SDS011;50750;51.636;4.948;2023-01-28T08:43:00;9.30;;;6.10;;
59872;SDS011;50750;51.636;4.948;2023-01-28T08:45:26;8.00;;;5.90;;
59872;SDS011;50750;51.636;4.948;2023-01-28T08:47:57;9.20;;;5.50;;
59872;SDS011;50750;51.636;4.948;2023-01-28T08:50:27;6.70;;;5.40;;
59872;SDS011;50750;51.636;4.948;2023-01-28T08:52:57;7.30;;;5.70;;
59872;SDS011;50750;51.636;4.948;2023-01-28T08:55:25;6.60;;;5.30;;
59872;SDS011;50750;51.636;4.948;2023-01-28T08:57:52;7.00;;;5.40;;
59872;SDS011;50750;51.636;4.948;2023-01-28T09:00:19;7.50;;;5.20;;
59872;SDS011;50750;51.636;4.948;2023-01-28T09:02:46;6.90;;;5.00;;
59872;SDS011;50750;51.636;4.948;2023-01-28T09:05:15;6.90;;;5.30;;
59872;SDS011;50750;51.636;4.948;2023-01-28T09:07:40;5.80;;;4.70;;
59872;SDS011;50750;51.636;4.948;2023-01-28T09:10:07;6.60;;;5.10;;
59872;SDS011;50750;51.636;4.948;2023-01-28T09:12:34;7.30;;;4.80;;
59872;SDS011;50750;51.636;4.948;2023-01-28T09:15:00;6.70;;;5.10;;
59872;SDS011;50750;51.636;4.948;2023-01-28T09:17:26;6.40;;;4.80;;
59872;SDS011;50750;51.636;4.948;2023-01-28T09:19:52;6.00;;;5.10;;
59872;SDS011;50750;51.636;4.948;2023-01-28T09:22:18;6.40;;;4.90;;
59872;SDS011;50750;51.636;4.948;2023-01-28T09:24:43;6.40;;;4.60;;
59872;SDS011;50750;51.636;4.948;2023-01-28T09:27:09;5.70;;;4.60;;
59872;SDS011;50750;51.636;4.948;2023-01-28T09:29:35;6.80;;;4.60;;
59872;SDS011;50750;51.636;4.948;2023-01-28T09:32:02;8.10;;;4.90;;
59872;SDS011;50750;51.636;4.948;2023-01-28T09:34:29;4.90;;;4.20;;
59872;SDS011;50750;51.636;4.948;2023-01-28T09:36:55;6.40;;;4.60;;
59872;SDS011;50750;51.636;4.948;2023-01-28T09:39:21;5.10;;;4.20;;
59872;SDS011;50750;51.636;4.948;2023-01-28T09:47:34;5.40;;;4.40;;
59872;SDS011;50750;51.636;4.948;2023-01-28T09:50:06;5.00;;;4.00;;
59872;SDS011;50750;51.636;4.948;2023-01-28T09:52:54;5.20;;;4.40;;
59872;SDS011;50750;51.636;4.948;2023-01-28T09:55:42;5.00;;;4.40;;
59872;SDS011;50750;51.636;4.948;2023-01-28T09:58:13;4.80;;;4.10;;
59872;SDS011;50750;51.636;4.948;2023-01-28T10:00:48;5.30;;;3.90;;
59872;SDS011;50750;51.636;4.948;2023-01-28T10:06:05;4.80;;;4.00;;
59872;SDS011;50750;51.636;4.948;2023-01-28T10:19:34;4.40;;;3.50;;
59872;SDS011;50750;51.636;4.948;2023-01-28T10:22:21;5.90;;;3.80;;
59872;SDS011;50750;51.636;4.948;2023-01-28T10:24:52;5.10;;;4.30;;
59872;SDS011;50750;51.636;4.948;2023-01-28T10:27:25;4.40;;;3.60;;
59872;SDS011;50750;51.636;4.948;2023-01-28T10:29:54;4.90;;;3.60;;
59872;SDS011;50750;51.636;4.948;2023-01-28T10:34:56;5.20;;;4.00;;
59872;SDS011;50750;51.636;4.948;2023-01-28T10:37:24;5.50;;;4.00;;
59872;SDS011;50750;51.636;4.948;2023-01-28T10:39:52;4.70;;;3.90;;
59872;SDS011;50750;51.636;4.948;2023-01-28T10:42:35;4.70;;;3.80;;
59872;SDS011;50750;51.636;4.948;2023-01-28T10:50:37;4.30;;;3.50;;
59872;SDS011;50750;51.636;4.948;2023-01-28T10:53:15;6.30;;;4.20;;
59872;SDS011;50750;51.636;4.948;2023-01-28T10:58:22;4.90;;;3.60;;
59872;SDS011;50750;51.636;4.948;2023-01-28T11:01:01;4.90;;;4.00;;
59872;SDS011;50750;51.636;4.948;2023-01-28T11:03:30;4.60;;;3.90;;
59872;SDS011;50750;51.636;4.948;2023-01-28T11:05:57;4.60;;;3.80;;
59872;SDS011;50750;51.636;4.948;2023-01-28T11:08:24;5.00;;;3.90;;
59872;SDS011;50750;51.636;4.948;2023-01-28T11:10:52;6.00;;;4.70;;
59872;SDS011;50750;51.636;4.948;2023-01-28T11:15:49;6.10;;;3.90;;
59872;SDS011;50750;51.636;4.948;2023-01-28T11:18:21;6.10;;;3.70;;
59872;SDS011;50750;51.636;4.948;2023-01-28T11:20:51;4.80;;;3.90;;
59872;SDS011;50750;51.636;4.948;2023-01-28T11:23:23;4.60;;;3.80;;
59872;SDS011;50750;51.636;4.948;2023-01-28T11:25:58;5.10;;;3.30;;
59872;SDS011;50750;51.636;4.948;2023-01-28T11:28:26;4.90;;;3.50;;
59872;SDS011;50750;51.636;4.948;2023-01-28T11:30:52;5.00;;;3.90;;
59872;SDS011;50750;51.636;4.948;2023-01-28T11:33:45;6.50;;;3.90;;
59872;SDS011;50750;51.636;4.948;2023-01-28T11:36:24;4.80;;;3.50;;
59872;SDS011;50750;51.636;4.948;2023-01-28T11:41:24;5.80;;;3.60;;
59872;SDS011;50750;51.636;4.948;2023-01-28T11:43:59;5.60;;;3.50;;
59872;SDS011;50750;51.636;4.948;2023-01-28T11:51:56;4.50;;;3.50;;
59872;SDS011;50750;51.636;4.948;2023-01-28T11:54:31;4.30;;;3.40;;
59872;SDS011;50750;51.636;4.948;2023-01-28T11:57:45;4.40;;;3.20;;
59872;SDS011;50750;51.636;4.948;2023-01-28T11:59:58;4.20;;;3.40;;
59872;SDS011;50750;51.636;4.948;2023-01-28T12:16:21;3.70;;;2.70;;
59872;SDS011;50750;51.636;4.948;2023-01-28T12:19:12;3.80;;;3.00;;
59872;SDS011;50750;51.636;4.948;2023-01-28T12:38:21;3.20;;;2.50;;
59872;SDS011;50750;51.636;4.948;2023-01-28T12:46:17;3.70;;;2.70;;
59872;SDS011;50750;51.636;4.948;2023-01-28T12:48:51;3.80;;;2.50;;
59872;SDS011;50750;51.636;4.948;2023-01-28T12:51:24;3.50;;;2.30;;
59872;SDS011;50750;51.636;4.948;2023-01-28T13:01:30;4.30;;;2.60;;
59872;SDS011;50750;51.636;4.948;2023-01-28T13:06:48;3.20;;;2.20;;
59872;SDS011;50750;51.636;4.948;2023-01-28T13:09:20;3.20;;;2.30;;
59872;SDS011;50750;51.636;4.948;2023-01-28T13:11:49;3.30;;;2.50;;
59872;SDS011;50750;51.636;4.948;2023-01-28T13:14:27;3.10;;;2.20;;
59872;SDS011;50750;51.636;4.948;2023-01-28T13:16:55;3.00;;;2.30;;
59872;SDS011;50750;51.636;4.948;2023-01-28T13:19:36;3.60;;;2.50;;
59872;SDS011;50750;51.636;4.948;2023-01-28T13:22:12;3.70;;;2.20;;
59872;SDS011;50750;51.636;4.948;2023-01-28T13:24:52;3.20;;;2.20;;
59872;SDS011;50750;51.636;4.948;2023-01-28T13:27:23;2.80;;;2.20;;
59872;SDS011;50750;51.636;4.948;2023-01-28T13:30:01;3.60;;;2.10;;
59872;SDS011;50750;51.636;4.948;2023-01-28T13:32:31;2.90;;;2.10;;
59872;SDS011;50750;51.636;4.948;2023-01-28T13:35:04;2.90;;;2.20;;
59872;SDS011;50750;51.636;4.948;2023-01-28T13:37:36;3.20;;;2.20;;
59872;SDS011;50750;51.636;4.948;2023-01-28T13:40:06;4.00;;;2.20;;
59872;SDS011;50750;51.636;4.948;2023-01-28T13:42:59;2.80;;;2.10;;
59872;SDS011;50750;51.636;4.948;2023-01-28T13:45:30;4.20;;;2.20;;
59872;SDS011;50750;51.636;4.948;2023-01-28T13:48:05;3.00;;;2.20;;
59872;SDS011;50750;51.636;4.948;2023-01-28T13:50:43;3.00;;;2.00;;
59872;SDS011;50750;51.636;4.948;2023-01-28T13:53:26;3.20;;;2.10;;
59872;SDS011;50750;51.636;4.948;2023-01-28T13:56:02;2.90;;;2.00;;
59872;SDS011;50750;51.636;4.948;2023-01-28T14:04:26;3.00;;;2.00;;
59872;SDS011;50750;51.636;4.948;2023-01-28T14:10:12;2.90;;;2.10;;
59872;SDS011;50750;51.636;4.948;2023-01-28T14:13:01;2.70;;;1.80;;
59872;SDS011;50750;51.636;4.948;2023-01-28T14:20:52;2.80;;;1.90;;
59872;SDS011;50750;51.636;4.948;2023-01-28T14:23:21;2.80;;;2.00;;
59872;SDS011;50750;51.636;4.948;2023-01-28T14:25:55;2.90;;;1.60;;
59872;SDS011;50750;51.636;4.948;2023-01-28T14:31:27;3.30;;;2.10;;
59872;SDS011;50750;51.636;4.948;2023-01-28T14:37:00;2.80;;;1.90;;
59872;SDS011;50750;51.636;4.948;2023-01-28T14:39:31;2.80;;;1.90;;
59872;SDS011;50750;51.636;4.948;2023-01-28T14:42:11;2.50;;;1.80;;
59872;SDS011;50750;51.636;4.948;2023-01-28T14:45:01;2.80;;;1.90;;
59872;SDS011;50750;51.636;4.948;2023-01-28T14:58:10;2.70;;;1.70;;
59872;SDS011;50750;51.636;4.948;2023-01-28T15:00:51;2.60;;;1.70;;
59872;SDS011;50750;51.636;4.948;2023-01-28T15:03:18;2.90;;;1.90;;
59872;SDS011;50750;51.636;4.948;2023-01-28T15:05:44;2.40;;;1.70;;
59872;SDS011;50750;51.636;4.948;2023-01-28T15:08:20;2.40;;;1.60;;
59872;SDS011;50750;51.636;4.948;2023-01-28T15:10:47;2.30;;;1.50;;
59872;SDS011;50750;51.636;4.948;2023-01-28T15:13:37;2.80;;;1.90;;
59872;SDS011;50750;51.636;4.948;2023-01-28T15:16:19;2.60;;;1.60;;
59872;SDS011;50750;51.636;4.948;2023-01-28T15:18:48;3.30;;;1.80;;
59872;SDS011;50750;51.636;4.948;2023-01-28T15:21:22;2.70;;;1.80;;
59872;SDS011;50750;51.636;4.948;2023-01-28T15:23:51;2.20;;;1.50;;
59872;SDS011;50750;51.636;4.948;2023-01-28T15:26:22;2.60;;;1.50;;
59872;SDS011;50750;51.636;4.948;2023-01-28T15:28:51;3.00;;;1.70;;
59872;SDS011;50750;51.636;4.948;2023-01-28T15:31:28;2.80;;;1.80;;
59872;SDS011;50750;51.636;4.948;2023-01-28T15:36:22;2.80;;;1.80;;
59872;SDS011;50750;51.636;4.948;2023-01-28T15:38:49;2.60;;;1.60;;
59872;SDS011;50750;51.636;4.948;2023-01-28T15:41:15;3.10;;;2.00;;
59872;SDS011;50750;51.636;4.948;2023-01-28T15:43:45;2.10;;;1.50;;
59872;SDS011;50750;51.636;4.948;2023-01-28T15:46:13;2.90;;;1.80;;
59872;SDS011;50750;51.636;4.948;2023-01-28T15:48:40;2.90;;;1.80;;
59872;SDS011;50750;51.636;4.948;2023-01-28T15:51:17;2.60;;;1.60;;
59872;SDS011;50750;51.636;4.948;2023-01-28T15:53:56;3.00;;;1.80;;
59872;SDS011;50750;51.636;4.948;2023-01-28T15:58:52;2.70;;;1.60;;
59872;SDS011;50750;51.636;4.948;2023-01-28T16:01:20;2.80;;;1.60;;
59872;SDS011;50750;51.636;4.948;2023-01-28T16:04:06;2.80;;;1.80;;
59872;SDS011;50750;51.636;4.948;2023-01-28T16:06:47;2.60;;;1.70;;
59872;SDS011;50750;51.636;4.948;2023-01-28T16:09:27;2.80;;;1.60;;
59872;SDS011;50750;51.636;4.948;2023-01-28T16:12:05;3.00;;;1.80;;
59872;SDS011;50750;51.636;4.948;2023-01-28T16:14:36;3.10;;;1.70;;
59872;SDS011;50750;51.636;4.948;2023-01-28T16:17:08;2.60;;;1.70;;
59872;SDS011;50750;51.636;4.948;2023-01-28T16:19:41;2.60;;;1.70;;
59872;SDS011;50750;51.636;4.948;2023-01-28T16:22:19;2.60;;;1.60;;
59872;SDS011;50750;51.636;4.948;2023-01-28T16:24:54;3.20;;;2.10;;
59872;SDS011;50750;51.636;4.948;2023-01-28T16:27:21;2.80;;;1.90;;
59872;SDS011;50750;51.636;4.948;2023-01-28T16:29:49;3.40;;;2.10;;
59872;SDS011;50750;51.636;4.948;2023-01-28T16:32:29;3.80;;;2.00;;
59872;SDS011;50750;51.636;4.948;2023-01-28T16:34:58;2.60;;;1.80;;
59872;SDS011;50750;51.636;4.948;2023-01-28T16:37:24;3.30;;;2.10;;
59872;SDS011;50750;51.636;4.948;2023-01-28T16:39:50;3.10;;;1.80;;
59872;SDS011;50750;51.636;4.948;2023-01-28T16:42:16;3.20;;;1.90;;
59872;SDS011;50750;51.636;4.948;2023-01-28T16:44:42;2.60;;;1.90;;
59872;SDS011;50750;51.636;4.948;2023-01-28T16:47:09;2.50;;;1.70;;
59872;SDS011;50750;51.636;4.948;2023-01-28T16:49:35;3.20;;;2.00;;
59872;SDS011;50750;51.636;4.948;2023-01-28T16:52:01;3.40;;;2.50;;
59872;SDS011;50750;51.636;4.948;2023-01-28T16:54:27;2.80;;;1.90;;
59872;SDS011;50750;51.636;4.948;2023-01-28T16:56:54;3.70;;;2.00;;
59872;SDS011;50750;51.636;4.948;2023-01-28T16:59:21;3.10;;;2.10;;
59872;SDS011;50750;51.636;4.948;2023-01-28T17:01:47;3.00;;;2.00;;
59872;SDS011;50750;51.636;4.948;2023-01-28T17:04:13;3.40;;;1.90;;
59872;SDS011;50750;51.636;4.948;2023-01-28T17:06:41;3.50;;;2.20;;
59872;SDS011;50750;51.636;4.948;2023-01-28T17:09:09;3.40;;;2.20;;
59872;SDS011;50750;51.636;4.948;2023-01-28T17:11:39;3.00;;;2.00;;
59872;SDS011;50750;51.636;4.948;2023-01-28T17:14:05;2.90;;;2.00;;
59872;SDS011;50750;51.636;4.948;2023-01-28T17:16:31;3.50;;;2.10;;
59872;SDS011;50750;51.636;4.948;2023-01-28T17:18:57;3.60;;;2.20;;
59872;SDS011;50750;51.636;4.948;2023-01-28T17:21:23;3.90;;;2.30;;
59872;SDS011;50750;51.636;4.948;2023-01-28T17:23:49;3.30;;;2.10;;
59872;SDS011;50750;51.636;4.948;2023-01-28T17:26:15;3.50;;;2.50;;
59872;SDS011;50750;51.636;4.948;2023-01-28T17:28:42;3.60;;;2.50;;
59872;SDS011;50750;51.636;4.948;2023-01-28T17:31:09;4.10;;;2.60;;
59872;SDS011;50750;51.636;4.948;2023-01-28T17:33:37;6.20;;;3.10;;